sensor_id;sensor_type;location;lat;lon;timestamp;temperature;humidity
22974;DHT22;11653;50.848;4.584;2023-04-25T00:01:22;10.50;99.90
22974;DHT22;11653;50.848;4.584;2023-04-25T00:03:48;10.60;99.90
22974;DHT22;11653;50.848;4.584;2023-04-25T00:06:14;10.60;99.90
22974;DHT22;11653;50.848;4.584;2023-04-25T00:08:40;10.60;99.90
22974;DHT22;11653;50.848;4.584;2023-04-25T00:11:05;10.70;99.90
22974;DHT22;11653;50.848;4.584;2023-04-25T00:13:31;10.80;99.90
22974;DHT22;11653;50.848;4.584;2023-04-25T00:15:57;10.80;99.90
22974;DHT22;11653;50.848;4.584;2023-04-25T00:18:23;10.80;99.90
22974;DHT22;11653;50.848;4.584;2023-04-25T00:20:49;10.70;99.90
22974;DHT22;11653;50.848;4.584;2023-04-25T00:23:18;10.70;99.90
22974;DHT22;11653;50.848;4.584;2023-04-25T00:25:44;10.70;99.90
22974;DHT22;11653;50.848;4.584;2023-04-25T00:28:11;10.70;99.90
22974;DHT22;11653;50.848;4.584;2023-04-25T00:30:38;10.80;99.90
22974;DHT22;11653;50.848;4.584;2023-04-25T00:33:04;10.90;99.90
22974;DHT22;11653;50.848;4.584;2023-04-25T00:35:29;10.90;99.90
22974;DHT22;11653;50.848;4.584;2023-04-25T00:37:55;10.80;99.90
22974;DHT22;11653;50.848;4.584;2023-04-25T00:40:21;10.70;99.90
22974;DHT22;11653;50.848;4.584;2023-04-25T00:42:47;10.80;99.90
22974;DHT22;11653;50.848;4.584;2023-04-25T00:45:14;10.70;99.90
22974;DHT22;11653;50.848;4.584;2023-04-25T00:47:42;10.70;99.90
22974;DHT22;11653;50.848;4.584;2023-04-25T00:50:09;10.70;99.90
22974;DHT22;11653;50.848;4.584;2023-04-25T00:52:36;10.70;99.90
22974;DHT22;11653;50.848;4.584;2023-04-25T00:55:03;10.70;99.90
22974;DHT22;11653;50.848;4.584;2023-04-25T00:57:29;10.70;99.90
22974;DHT22;11653;50.848;4.584;2023-04-25T00:59:55;10.70;99.90
22974;DHT22;11653;50.848;4.584;2023-04-25T01:02:21;10.70;99.90
22974;DHT22;11653;50.848;4.584;2023-04-25T01:04:48;10.70;99.90
22974;DHT22;11653;50.848;4.584;2023-04-25T01:07:14;10.70;99.90
22974;DHT22;11653;50.848;4.584;2023-04-25T01:09:40;10.70;99.90
22974;DHT22;11653;50.848;4.584;2023-04-25T01:12:06;10.70;99.90
22974;DHT22;11653;50.848;4.584;2023-04-25T01:14:32;10.60;99.90
22974;DHT22;11653;50.848;4.584;2023-04-25T01:16:58;10.60;99.90
22974;DHT22;11653;50.848;4.584;2023-04-25T01:19:24;10.60;99.90
22974;DHT22;11653;50.848;4.584;2023-04-25T01:21:50;10.50;99.90
22974;DHT22;11653;50.848;4.584;2023-04-25T01:24:16;10.50;99.90
22974;DHT22;11653;50.848;4.584;2023-04-25T01:26:43;10.50;99.90
22974;DHT22;11653;50.848;4.584;2023-04-25T01:29:19;10.50;99.90
22974;DHT22;11653;50.848;4.584;2023-04-25T01:31:46;10.50;99.90
22974;DHT22;11653;50.848;4.584;2023-04-25T01:34:15;10.40;99.90
22974;DHT22;11653;50.848;4.584;2023-04-25T01:36:40;10.40;99.90
22974;DHT22;11653;50.848;4.584;2023-04-25T01:39:07;10.50;99.90
22974;DHT22;11653;50.848;4.584;2023-04-25T01:41:33;10.50;99.90
22974;DHT22;11653;50.848;4.584;2023-04-25T01:44:00;10.50;99.90
22974;DHT22;11653;50.848;4.584;2023-04-25T01:46:27;10.50;99.90
22974;DHT22;11653;50.848;4.584;2023-04-25T01:48:52;10.50;99.90
22974;DHT22;11653;50.848;4.584;2023-04-25T01:51:18;10.50;99.90
22974;DHT22;11653;50.848;4.584;2023-04-25T01:53:44;10.50;99.90
22974;DHT22;11653;50.848;4.584;2023-04-25T01:56:10;10.60;99.90
22974;DHT22;11653;50.848;4.584;2023-04-25T01:58:36;10.60;99.90
22974;DHT22;11653;50.848;4.584;2023-04-25T02:01:01;10.50;99.90
22974;DHT22;11653;50.848;4.584;2023-04-25T02:03:27;10.40;99.90
22974;DHT22;11653;50.848;4.584;2023-04-25T02:05:53;10.60;99.90
22974;DHT22;11653;50.848;4.584;2023-04-25T02:08:18;10.40;99.90
22974;DHT22;11653;50.848;4.584;2023-04-25T02:10:44;10.40;99.90
22974;DHT22;11653;50.848;4.584;2023-04-25T02:13:10;10.30;99.90
22974;DHT22;11653;50.848;4.584;2023-04-25T02:15:35;10.30;99.90
22974;DHT22;11653;50.848;4.584;2023-04-25T02:18:01;10.30;99.90
22974;DHT22;11653;50.848;4.584;2023-04-25T02:20:28;10.40;99.90
22974;DHT22;11653;50.848;4.584;2023-04-25T02:22:54;10.40;99.90
22974;DHT22;11653;50.848;4.584;2023-04-25T02:25:20;10.40;99.90
22974;DHT22;11653;50.848;4.584;2023-04-25T02:27:47;10.40;99.90
22974;DHT22;11653;50.848;4.584;2023-04-25T02:30:12;10.30;99.90
22974;DHT22;11653;50.848;4.584;2023-04-25T02:32:39;10.40;99.90
22974;DHT22;11653;50.848;4.584;2023-04-25T02:35:05;10.40;99.90
22974;DHT22;11653;50.848;4.584;2023-04-25T02:37:32;10.20;99.90
22974;DHT22;11653;50.848;4.584;2023-04-25T02:39:58;10.10;99.90
22974;DHT22;11653;50.848;4.584;2023-04-25T02:42:23;9.90;99.90
22974;DHT22;11653;50.848;4.584;2023-04-25T02:44:49;9.90;99.90
22974;DHT22;11653;50.848;4.584;2023-04-25T02:47:15;9.90;99.90
22974;DHT22;11653;50.848;4.584;2023-04-25T02:49:40;9.90;99.90
22974;DHT22;11653;50.848;4.584;2023-04-25T02:52:06;10.00;99.90
22974;DHT22;11653;50.848;4.584;2023-04-25T02:54:32;10.00;99.90
22974;DHT22;11653;50.848;4.584;2023-04-25T02:56:58;10.00;99.90
22974;DHT22;11653;50.848;4.584;2023-04-25T02:59:23;10.00;99.90
22974;DHT22;11653;50.848;4.584;2023-04-25T03:01:50;10.00;99.90
22974;DHT22;11653;50.848;4.584;2023-04-25T03:04:16;10.00;99.90
22974;DHT22;11653;50.848;4.584;2023-04-25T03:06:41;10.00;99.90
22974;DHT22;11653;50.848;4.584;2023-04-25T03:09:07;10.00;99.90
22974;DHT22;11653;50.848;4.584;2023-04-25T03:11:33;10.10;99.90
22974;DHT22;11653;50.848;4.584;2023-04-25T03:13:58;10.20;99.90
22974;DHT22;11653;50.848;4.584;2023-04-25T03:16:24;10.20;99.90
22974;DHT22;11653;50.848;4.584;2023-04-25T03:18:50;10.10;99.90
22974;DHT22;11653;50.848;4.584;2023-04-25T03:21:16;10.10;99.90
22974;DHT22;11653;50.848;4.584;2023-04-25T03:23:42;10.20;99.90
22974;DHT22;11653;50.848;4.584;2023-04-25T03:26:08;10.30;99.90
22974;DHT22;11653;50.848;4.584;2023-04-25T03:28:33;10.10;99.90
22974;DHT22;11653;50.848;4.584;2023-04-25T03:30:59;10.10;99.90
22974;DHT22;11653;50.848;4.584;2023-04-25T03:33:24;10.20;99.90
22974;DHT22;11653;50.848;4.584;2023-04-25T03:35:50;10.00;99.90
22974;DHT22;11653;50.848;4.584;2023-04-25T03:38:17;10.00;99.90
22974;DHT22;11653;50.848;4.584;2023-04-25T03:40:42;10.00;99.90
22974;DHT22;11653;50.848;4.584;2023-04-25T03:43:08;10.00;99.90
22974;DHT22;11653;50.848;4.584;2023-04-25T03:45:34;10.00;99.90
22974;DHT22;11653;50.848;4.584;2023-04-25T03:47:59;10.00;99.90
22974;DHT22;11653;50.848;4.584;2023-04-25T03:50:25;9.70;99.90
22974;DHT22;11653;50.848;4.584;2023-04-25T03:52:51;9.80;99.90
22974;DHT22;11653;50.848;4.584;2023-04-25T03:55:16;9.70;99.90
22974;DHT22;11653;50.848;4.584;2023-04-25T03:57:42;9.60;99.90
22974;DHT22;11653;50.848;4.584;2023-04-25T04:00:08;9.40;99.90
22974;DHT22;11653;50.848;4.584;2023-04-25T04:02:35;9.40;99.90
22974;DHT22;11653;50.848;4.584;2023-04-25T04:05:02;9.50;99.90
22974;DHT22;11653;50.848;4.584;2023-04-25T04:07:28;9.50;99.90
22974;DHT22;11653;50.848;4.584;2023-04-25T04:09:53;9.30;99.90
22974;DHT22;11653;50.848;4.584;2023-04-25T04:12:19;9.30;99.90
22974;DHT22;11653;50.848;4.584;2023-04-25T04:14:45;9.20;99.90
22974;DHT22;11653;50.848;4.584;2023-04-25T04:17:10;9.20;99.90
22974;DHT22;11653;50.848;4.584;2023-04-25T04:19:36;9.20;99.90
22974;DHT22;11653;50.848;4.584;2023-04-25T04:22:02;9.30;99.90
22974;DHT22;11653;50.848;4.584;2023-04-25T04:24:28;9.30;99.90
22974;DHT22;11653;50.848;4.584;2023-04-25T04:26:53;9.30;99.90
22974;DHT22;11653;50.848;4.584;2023-04-25T04:29:19;9.20;99.90
22974;DHT22;11653;50.848;4.584;2023-04-25T04:31:50;9.20;99.90
22974;DHT22;11653;50.848;4.584;2023-04-25T04:34:18;9.30;99.90
22974;DHT22;11653;50.848;4.584;2023-04-25T04:36:44;9.40;99.90
22974;DHT22;11653;50.848;4.584;2023-04-25T04:39:13;9.40;99.90
22974;DHT22;11653;50.848;4.584;2023-04-25T04:41:39;9.40;99.90
22974;DHT22;11653;50.848;4.584;2023-04-25T04:44:05;9.40;99.90
22974;DHT22;11653;50.848;4.584;2023-04-25T04:46:32;9.50;99.90
22974;DHT22;11653;50.848;4.584;2023-04-25T04:49:04;9.50;99.90
22974;DHT22;11653;50.848;4.584;2023-04-25T04:51:30;9.50;99.90
22974;DHT22;11653;50.848;4.584;2023-04-25T04:53:56;9.50;99.90
22974;DHT22;11653;50.848;4.584;2023-04-25T04:56:24;9.60;99.90
22974;DHT22;11653;50.848;4.584;2023-04-25T04:58:51;9.60;99.90
22974;DHT22;11653;50.848;4.584;2023-04-25T05:01:17;9.70;99.90
22974;DHT22;11653;50.848;4.584;2023-04-25T05:03:43;9.70;99.90
22974;DHT22;11653;50.848;4.584;2023-04-25T05:06:09;9.60;99.90
22974;DHT22;11653;50.848;4.584;2023-04-25T05:08:35;9.60;99.90
22974;DHT22;11653;50.848;4.584;2023-04-25T05:11:01;9.60;99.90
22974;DHT22;11653;50.848;4.584;2023-04-25T05:13:27;9.70;99.90
22974;DHT22;11653;50.848;4.584;2023-04-25T05:15:52;9.70;99.90
22974;DHT22;11653;50.848;4.584;2023-04-25T05:18:18;9.60;99.90
22974;DHT22;11653;50.848;4.584;2023-04-25T05:20:44;9.70;99.90
22974;DHT22;11653;50.848;4.584;2023-04-25T05:23:09;9.70;99.90
22974;DHT22;11653;50.848;4.584;2023-04-25T05:25:35;9.70;99.90
22974;DHT22;11653;50.848;4.584;2023-04-25T05:28:01;9.80;99.90
22974;DHT22;11653;50.848;4.584;2023-04-25T05:30:26;9.70;99.90
22974;DHT22;11653;50.848;4.584;2023-04-25T05:32:52;9.70;99.90
22974;DHT22;11653;50.848;4.584;2023-04-25T05:35:18;9.60;99.90
22974;DHT22;11653;50.848;4.584;2023-04-25T05:37:43;9.60;99.90
22974;DHT22;11653;50.848;4.584;2023-04-25T05:40:09;9.50;99.90
22974;DHT22;11653;50.848;4.584;2023-04-25T05:42:35;9.50;99.90
22974;DHT22;11653;50.848;4.584;2023-04-25T05:45:01;9.60;99.90
22974;DHT22;11653;50.848;4.584;2023-04-25T05:47:27;9.60;99.90
22974;DHT22;11653;50.848;4.584;2023-04-25T05:49:53;9.60;99.90
22974;DHT22;11653;50.848;4.584;2023-04-25T05:52:19;9.60;99.90
22974;DHT22;11653;50.848;4.584;2023-04-25T05:54:46;9.50;99.90
22974;DHT22;11653;50.848;4.584;2023-04-25T05:57:38;9.50;99.90
22974;DHT22;11653;50.848;4.584;2023-04-25T06:00:11;9.50;99.90
22974;DHT22;11653;50.848;4.584;2023-04-25T06:02:37;9.40;99.90
22974;DHT22;11653;50.848;4.584;2023-04-25T06:05:04;9.50;99.90
22974;DHT22;11653;50.848;4.584;2023-04-25T06:07:30;9.50;99.90
22974;DHT22;11653;50.848;4.584;2023-04-25T06:09:57;9.50;99.90
22974;DHT22;11653;50.848;4.584;2023-04-25T06:12:23;9.60;99.90
22974;DHT22;11653;50.848;4.584;2023-04-25T06:14:48;9.60;99.90
22974;DHT22;11653;50.848;4.584;2023-04-25T06:17:14;9.70;99.90
22974;DHT22;11653;50.848;4.584;2023-04-25T06:19:40;9.70;99.90
22974;DHT22;11653;50.848;4.584;2023-04-25T06:22:07;9.70;99.90
22974;DHT22;11653;50.848;4.584;2023-04-25T06:24:32;9.80;99.90
22974;DHT22;11653;50.848;4.584;2023-04-25T06:26:59;9.80;99.90
22974;DHT22;11653;50.848;4.584;2023-04-25T06:29:25;9.90;99.90
22974;DHT22;11653;50.848;4.584;2023-04-25T06:31:51;10.00;99.90
22974;DHT22;11653;50.848;4.584;2023-04-25T06:34:17;10.10;99.90
22974;DHT22;11653;50.848;4.584;2023-04-25T06:36:42;10.20;99.90
22974;DHT22;11653;50.848;4.584;2023-04-25T06:39:09;10.20;99.90
22974;DHT22;11653;50.848;4.584;2023-04-25T06:41:36;10.20;99.90
22974;DHT22;11653;50.848;4.584;2023-04-25T06:44:01;10.30;99.90
22974;DHT22;11653;50.848;4.584;2023-04-25T06:46:27;10.30;99.90
22974;DHT22;11653;50.848;4.584;2023-04-25T06:48:52;10.60;99.90
22974;DHT22;11653;50.848;4.584;2023-04-25T06:51:18;10.60;99.90
22974;DHT22;11653;50.848;4.584;2023-04-25T06:53:44;10.70;99.90
22974;DHT22;11653;50.848;4.584;2023-04-25T06:56:09;10.70;99.90
22974;DHT22;11653;50.848;4.584;2023-04-25T06:58:35;10.80;99.90
22974;DHT22;11653;50.848;4.584;2023-04-25T07:01:01;11.10;99.90
22974;DHT22;11653;50.848;4.584;2023-04-25T07:03:26;11.20;99.90
22974;DHT22;11653;50.848;4.584;2023-04-25T07:05:52;11.30;99.90
22974;DHT22;11653;50.848;4.584;2023-04-25T07:08:18;11.30;99.90
22974;DHT22;11653;50.848;4.584;2023-04-25T07:10:43;11.20;99.90
22974;DHT22;11653;50.848;4.584;2023-04-25T07:13:11;11.00;99.90
22974;DHT22;11653;50.848;4.584;2023-04-25T07:15:37;11.00;99.90
22974;DHT22;11653;50.848;4.584;2023-04-25T07:18:02;10.80;99.90
22974;DHT22;11653;50.848;4.584;2023-04-25T07:20:28;10.80;99.90
22974;DHT22;11653;50.848;4.584;2023-04-25T07:22:56;10.80;99.90
22974;DHT22;11653;50.848;4.584;2023-04-25T07:25:22;11.00;99.90
22974;DHT22;11653;50.848;4.584;2023-04-25T07:27:48;11.00;99.90
22974;DHT22;11653;50.848;4.584;2023-04-25T07:30:14;11.00;99.90
22974;DHT22;11653;50.848;4.584;2023-04-25T07:32:39;11.00;99.90
22974;DHT22;11653;50.848;4.584;2023-04-25T07:35:05;11.10;99.90
22974;DHT22;11653;50.848;4.584;2023-04-25T07:37:33;11.20;99.90
22974;DHT22;11653;50.848;4.584;2023-04-25T07:39:59;11.30;99.90
22974;DHT22;11653;50.848;4.584;2023-04-25T07:42:24;11.30;99.90
22974;DHT22;11653;50.848;4.584;2023-04-25T07:44:50;11.30;99.90
22974;DHT22;11653;50.848;4.584;2023-04-25T07:47:17;11.30;99.90
22974;DHT22;11653;50.848;4.584;2023-04-25T07:49:44;11.20;99.90
22974;DHT22;11653;50.848;4.584;2023-04-25T07:52:10;11.20;99.90
22974;DHT22;11653;50.848;4.584;2023-04-25T07:54:36;11.30;99.90
22974;DHT22;11653;50.848;4.584;2023-04-25T07:57:02;11.50;99.90
22974;DHT22;11653;50.848;4.584;2023-04-25T07:59:28;11.70;99.90
22974;DHT22;11653;50.848;4.584;2023-04-25T08:01:53;12.00;99.90
22974;DHT22;11653;50.848;4.584;2023-04-25T08:04:19;12.20;99.90
22974;DHT22;11653;50.848;4.584;2023-04-25T08:06:45;12.40;99.90
22974;DHT22;11653;50.848;4.584;2023-04-25T08:09:11;12.70;99.90
22974;DHT22;11653;50.848;4.584;2023-04-25T08:11:37;12.80;99.90
22974;DHT22;11653;50.848;4.584;2023-04-25T08:14:02;13.00;99.90
22974;DHT22;11653;50.848;4.584;2023-04-25T08:16:28;13.20;99.90
22974;DHT22;11653;50.848;4.584;2023-04-25T08:18:54;13.30;99.90
22974;DHT22;11653;50.848;4.584;2023-04-25T08:21:19;13.20;99.90
22974;DHT22;11653;50.848;4.584;2023-04-25T08:23:45;12.90;99.90
22974;DHT22;11653;50.848;4.584;2023-04-25T08:26:11;12.90;99.90
22974;DHT22;11653;50.848;4.584;2023-04-25T08:28:37;13.10;99.90
22974;DHT22;11653;50.848;4.584;2023-04-25T08:31:03;13.00;99.90
22974;DHT22;11653;50.848;4.584;2023-04-25T08:33:29;13.00;99.90
22974;DHT22;11653;50.848;4.584;2023-04-25T08:35:55;13.00;99.90
22974;DHT22;11653;50.848;4.584;2023-04-25T08:38:21;12.80;99.90
22974;DHT22;11653;50.848;4.584;2023-04-25T08:40:49;12.60;99.90
22974;DHT22;11653;50.848;4.584;2023-04-25T08:43:18;12.40;99.90
22974;DHT22;11653;50.848;4.584;2023-04-25T08:45:44;12.20;99.90
22974;DHT22;11653;50.848;4.584;2023-04-25T08:48:12;11.80;99.90
22974;DHT22;11653;50.848;4.584;2023-04-25T08:50:45;11.90;99.90
22974;DHT22;11653;50.848;4.584;2023-04-25T08:53:14;12.00;99.90
22974;DHT22;11653;50.848;4.584;2023-04-25T08:55:45;12.20;99.90
22974;DHT22;11653;50.848;4.584;2023-04-25T08:58:12;12.40;99.90
22974;DHT22;11653;50.848;4.584;2023-04-25T09:00:39;12.50;99.90
22974;DHT22;11653;50.848;4.584;2023-04-25T09:03:05;12.70;99.90
22974;DHT22;11653;50.848;4.584;2023-04-25T09:05:33;12.90;99.90
22974;DHT22;11653;50.848;4.584;2023-04-25T09:07:59;13.00;99.90
22974;DHT22;11653;50.848;4.584;2023-04-25T09:10:26;13.40;99.90
22974;DHT22;11653;50.848;4.584;2023-04-25T09:13:13;13.90;99.90
22974;DHT22;11653;50.848;4.584;2023-04-25T09:15:50;14.60;99.90
22974;DHT22;11653;50.848;4.584;2023-04-25T09:18:28;15.10;99.80
22974;DHT22;11653;50.848;4.584;2023-04-25T09:20:58;16.20;99.90
22974;DHT22;11653;50.848;4.584;2023-04-25T09:23:30;17.60;96.50
22974;DHT22;11653;50.848;4.584;2023-04-25T09:25:56;19.00;91.70
22974;DHT22;11653;50.848;4.584;2023-04-25T09:28:26;19.40;87.00
22974;DHT22;11653;50.848;4.584;2023-04-25T09:30:56;19.00;83.20
22974;DHT22;11653;50.848;4.584;2023-04-25T09:33:31;18.50;84.70
22974;DHT22;11653;50.848;4.584;2023-04-25T09:36:07;17.80;86.10
22974;DHT22;11653;50.848;4.584;2023-04-25T09:38:46;17.30;86.60
22974;DHT22;11653;50.848;4.584;2023-04-25T09:41:12;16.60;90.10
22974;DHT22;11653;50.848;4.584;2023-04-25T09:43:39;15.90;92.10
22974;DHT22;11653;50.848;4.584;2023-04-25T09:46:09;15.20;93.50
22974;DHT22;11653;50.848;4.584;2023-04-25T09:48:35;14.70;95.40
22974;DHT22;11653;50.848;4.584;2023-04-25T09:51:12;14.30;96.20
22974;DHT22;11653;50.848;4.584;2023-04-25T09:53:45;13.60;97.80
22974;DHT22;11653;50.848;4.584;2023-04-25T09:56:12;13.20;99.80
22974;DHT22;11653;50.848;4.584;2023-04-25T09:58:39;13.20;99.90
22974;DHT22;11653;50.848;4.584;2023-04-25T10:01:08;14.00;99.90
22974;DHT22;11653;50.848;4.584;2023-04-25T10:03:35;15.70;99.90
22974;DHT22;11653;50.848;4.584;2023-04-25T10:06:03;18.00;96.00
22974;DHT22;11653;50.848;4.584;2023-04-25T10:08:35;19.40;89.40
22974;DHT22;11653;50.848;4.584;2023-04-25T10:11:03;20.40;83.70
22974;DHT22;11653;50.848;4.584;2023-04-25T10:13:30;21.40;76.90
22974;DHT22;11653;50.848;4.584;2023-04-25T10:16:01;22.30;72.20
22974;DHT22;11653;50.848;4.584;2023-04-25T10:18:28;23.10;67.70
22974;DHT22;11653;50.848;4.584;2023-04-25T10:20:55;24.00;65.40
22974;DHT22;11653;50.848;4.584;2023-04-25T10:23:21;24.10;58.00
22974;DHT22;11653;50.848;4.584;2023-04-25T10:25:50;23.30;59.70
22974;DHT22;11653;50.848;4.584;2023-04-25T10:28:16;22.30;59.70
22974;DHT22;11653;50.848;4.584;2023-04-25T10:31:02;20.70;62.10
22974;DHT22;11653;50.848;4.584;2023-04-25T10:33:39;20.50;66.50
22974;DHT22;11653;50.848;4.584;2023-04-25T10:36:18;21.40;65.30
22974;DHT22;11653;50.848;4.584;2023-04-25T10:38:45;22.10;62.50
22974;DHT22;11653;50.848;4.584;2023-04-25T10:41:12;23.30;60.20
22974;DHT22;11653;50.848;4.584;2023-04-25T10:43:45;24.20;57.00
22974;DHT22;11653;50.848;4.584;2023-04-25T10:46:30;24.20;56.00
22974;DHT22;11653;50.848;4.584;2023-04-25T10:49:01;23.70;55.60
22974;DHT22;11653;50.848;4.584;2023-04-25T10:51:36;22.80;57.70
22974;DHT22;11653;50.848;4.584;2023-04-25T10:54:06;22.90;59.20
22974;DHT22;11653;50.848;4.584;2023-04-25T10:56:35;23.00;56.60
22974;DHT22;11653;50.848;4.584;2023-04-25T10:59:26;22.80;54.90
22974;DHT22;11653;50.848;4.584;2023-04-25T11:01:54;22.00;54.60
22974;DHT22;11653;50.848;4.584;2023-04-25T11:04:31;21.00;56.80
22974;DHT22;11653;50.848;4.584;2023-04-25T11:09:36;19.90;60.50
22974;DHT22;11653;50.848;4.584;2023-04-25T11:12:03;19.20;63.30
22974;DHT22;11653;50.848;4.584;2023-04-25T11:14:30;18.80;63.70
22974;DHT22;11653;50.848;4.584;2023-04-25T11:16:59;18.40;65.00
22974;DHT22;11653;50.848;4.584;2023-04-25T11:19:26;17.80;65.80
22974;DHT22;11653;50.848;4.584;2023-04-25T11:22:00;17.30;69.60
22974;DHT22;11653;50.848;4.584;2023-04-25T11:24:33;16.30;74.20
22974;DHT22;11653;50.848;4.584;2023-04-25T11:27:03;15.70;78.00
22974;DHT22;11653;50.848;4.584;2023-04-25T11:29:30;15.00;80.20
22974;DHT22;11653;50.848;4.584;2023-04-25T11:31:56;14.60;83.20
22974;DHT22;11653;50.848;4.584;2023-04-25T11:34:24;14.10;84.50
22974;DHT22;11653;50.848;4.584;2023-04-25T11:36:51;13.60;88.40
22974;DHT22;11653;50.848;4.584;2023-04-25T11:39:18;13.40;91.10
22974;DHT22;11653;50.848;4.584;2023-04-25T11:41:44;13.20;93.00
22974;DHT22;11653;50.848;4.584;2023-04-25T11:44:10;13.20;94.60
22974;DHT22;11653;50.848;4.584;2023-04-25T11:46:36;13.30;95.30
22974;DHT22;11653;50.848;4.584;2023-04-25T11:49:02;13.30;95.60
22974;DHT22;11653;50.848;4.584;2023-04-25T11:51:29;13.60;96.30
22974;DHT22;11653;50.848;4.584;2023-04-25T11:53:56;13.70;94.60
22974;DHT22;11653;50.848;4.584;2023-04-25T11:56:22;14.10;95.30
22974;DHT22;11653;50.848;4.584;2023-04-25T11:59:02;14.80;94.50
22974;DHT22;11653;50.848;4.584;2023-04-25T12:01:30;15.90;93.70
22974;DHT22;11653;50.848;4.584;2023-04-25T12:03:56;17.00;91.10
22974;DHT22;11653;50.848;4.584;2023-04-25T12:06:28;17.00;83.10
22974;DHT22;11653;50.848;4.584;2023-04-25T12:09:02;16.80;83.40
22974;DHT22;11653;50.848;4.584;2023-04-25T12:11:30;16.60;80.50
22974;DHT22;11653;50.848;4.584;2023-04-25T12:14:04;16.40;81.00
22974;DHT22;11653;50.848;4.584;2023-04-25T12:16:40;16.20;81.30
22974;DHT22;11653;50.848;4.584;2023-04-25T12:19:07;16.10;82.40
22974;DHT22;11653;50.848;4.584;2023-04-25T12:21:32;16.00;84.00
22974;DHT22;11653;50.848;4.584;2023-04-25T12:29:24;15.60;83.60
22974;DHT22;11653;50.848;4.584;2023-04-25T12:31:51;15.50;83.80
22974;DHT22;11653;50.848;4.584;2023-04-25T12:34:21;15.60;79.70
22974;DHT22;11653;50.848;4.584;2023-04-25T12:36:48;15.40;82.00
22974;DHT22;11653;50.848;4.584;2023-04-25T12:39:20;15.30;79.70
22974;DHT22;11653;50.848;4.584;2023-04-25T12:41:51;15.10;80.00
22974;DHT22;11653;50.848;4.584;2023-04-25T12:44:19;14.90;79.10
22974;DHT22;11653;50.848;4.584;2023-04-25T12:46:45;14.80;80.40
22974;DHT22;11653;50.848;4.584;2023-04-25T12:49:11;14.70;79.20
22974;DHT22;11653;50.848;4.584;2023-04-25T12:51:37;14.50;80.20
22974;DHT22;11653;50.848;4.584;2023-04-25T12:54:04;14.50;80.50
22974;DHT22;11653;50.848;4.584;2023-04-25T12:56:33;14.50;79.40
22974;DHT22;11653;50.848;4.584;2023-04-25T12:58:58;14.40;78.40
22974;DHT22;11653;50.848;4.584;2023-04-25T13:01:25;14.60;81.70
22974;DHT22;11653;50.848;4.584;2023-04-25T13:03:51;14.70;80.80
22974;DHT22;11653;50.848;4.584;2023-04-25T13:06:17;14.90;85.90
22974;DHT22;11653;50.848;4.584;2023-04-25T13:08:43;15.10;83.30
22974;DHT22;11653;50.848;4.584;2023-04-25T13:11:09;15.30;79.40
22974;DHT22;11653;50.848;4.584;2023-04-25T13:13:35;15.40;79.20
22974;DHT22;11653;50.848;4.584;2023-04-25T13:16:01;15.50;79.20
22974;DHT22;11653;50.848;4.584;2023-04-25T13:18:30;15.50;77.10
22974;DHT22;11653;50.848;4.584;2023-04-25T13:20:57;15.40;79.40
22974;DHT22;11653;50.848;4.584;2023-04-25T13:23:24;15.40;80.60
22974;DHT22;11653;50.848;4.584;2023-04-25T13:25:50;15.10;83.60
22974;DHT22;11653;50.848;4.584;2023-04-25T13:28:16;14.90;86.50
22974;DHT22;11653;50.848;4.584;2023-04-25T13:30:42;14.80;85.00
22974;DHT22;11653;50.848;4.584;2023-04-25T13:33:07;14.60;83.30
22974;DHT22;11653;50.848;4.584;2023-04-25T13:35:35;14.80;86.60
22974;DHT22;11653;50.848;4.584;2023-04-25T13:38:01;15.10;82.40
22974;DHT22;11653;50.848;4.584;2023-04-25T13:40:27;15.00;78.80
22974;DHT22;11653;50.848;4.584;2023-04-25T13:42:53;14.90;79.60
22974;DHT22;11653;50.848;4.584;2023-04-25T13:45:20;14.90;79.40
22974;DHT22;11653;50.848;4.584;2023-04-25T13:47:45;15.00;81.10
22974;DHT22;11653;50.848;4.584;2023-04-25T13:50:11;15.00;83.00
22974;DHT22;11653;50.848;4.584;2023-04-25T13:52:37;15.00;83.10
22974;DHT22;11653;50.848;4.584;2023-04-25T13:55:03;14.90;78.50
22974;DHT22;11653;50.848;4.584;2023-04-25T13:57:32;15.00;80.80
22974;DHT22;11653;50.848;4.584;2023-04-25T13:59:58;15.10;79.30
22974;DHT22;11653;50.848;4.584;2023-04-25T14:02:24;15.10;78.90
22974;DHT22;11653;50.848;4.584;2023-04-25T14:04:51;15.10;78.30
22974;DHT22;11653;50.848;4.584;2023-04-25T14:07:16;15.10;79.60
22974;DHT22;11653;50.848;4.584;2023-04-25T14:09:43;15.20;80.40
22974;DHT22;11653;50.848;4.584;2023-04-25T14:12:09;15.20;80.70
22974;DHT22;11653;50.848;4.584;2023-04-25T14:14:34;15.30;81.00
22974;DHT22;11653;50.848;4.584;2023-04-25T14:17:00;15.50;82.50
22974;DHT22;11653;50.848;4.584;2023-04-25T14:19:26;15.70;83.10
22974;DHT22;11653;50.848;4.584;2023-04-25T14:21:52;15.70;81.50
22974;DHT22;11653;50.848;4.584;2023-04-25T14:24:17;15.50;78.00
22974;DHT22;11653;50.848;4.584;2023-04-25T14:26:43;15.30;80.70
22974;DHT22;11653;50.848;4.584;2023-04-25T14:29:09;15.40;78.30
22974;DHT22;11653;50.848;4.584;2023-04-25T14:31:37;15.50;78.10
22974;DHT22;11653;50.848;4.584;2023-04-25T14:34:04;15.60;78.70
22974;DHT22;11653;50.848;4.584;2023-04-25T14:36:31;15.70;78.10
22974;DHT22;11653;50.848;4.584;2023-04-25T14:38:57;15.80;77.90
22974;DHT22;11653;50.848;4.584;2023-04-25T14:41:25;15.90;83.20
22974;DHT22;11653;50.848;4.584;2023-04-25T14:43:51;15.80;81.40
22974;DHT22;11653;50.848;4.584;2023-04-25T14:46:19;15.60;77.40
22974;DHT22;11653;50.848;4.584;2023-04-25T14:48:45;15.50;76.90
22974;DHT22;11653;50.848;4.584;2023-04-25T14:51:11;15.30;76.30
22974;DHT22;11653;50.848;4.584;2023-04-25T14:53:37;15.30;78.30
22974;DHT22;11653;50.848;4.584;2023-04-25T14:56:03;15.40;73.70
22974;DHT22;11653;50.848;4.584;2023-04-25T14:58:31;15.50;75.00
22974;DHT22;11653;50.848;4.584;2023-04-25T15:00:57;15.70;79.50
22974;DHT22;11653;50.848;4.584;2023-04-25T15:03:22;15.70;79.60
22974;DHT22;11653;50.848;4.584;2023-04-25T15:05:48;15.20;78.00
22974;DHT22;11653;50.848;4.584;2023-04-25T15:08:14;15.00;79.00
22974;DHT22;11653;50.848;4.584;2023-04-25T15:10:39;14.90;78.60
22974;DHT22;11653;50.848;4.584;2023-04-25T15:13:05;14.90;77.60
22974;DHT22;11653;50.848;4.584;2023-04-25T15:15:31;14.90;78.70
22974;DHT22;11653;50.848;4.584;2023-04-25T15:17:57;14.90;81.40
22974;DHT22;11653;50.848;4.584;2023-04-25T15:20:23;15.10;81.80
22974;DHT22;11653;50.848;4.584;2023-04-25T15:22:49;15.00;76.50
22974;DHT22;11653;50.848;4.584;2023-04-25T15:25:16;15.10;76.60
22974;DHT22;11653;50.848;4.584;2023-04-25T15:27:45;15.30;78.40
22974;DHT22;11653;50.848;4.584;2023-04-25T15:30:15;15.50;80.00
22974;DHT22;11653;50.848;4.584;2023-04-25T15:32:42;15.70;75.30
22974;DHT22;11653;50.848;4.584;2023-04-25T15:35:08;15.80;77.90
22974;DHT22;11653;50.848;4.584;2023-04-25T15:37:34;15.80;77.40
22974;DHT22;11653;50.848;4.584;2023-04-25T15:42:46;15.80;74.60